sensor_id;sensor_type;location;lat;lon;timestamp;pressure;altitude;pressure_sealevel;temperature;humidity
18201;BME280;9226;47.858;9.594;2023-07-16T00:00:50;95124.38;;;23.55;72.90
18201;BME280;9226;47.858;9.594;2023-07-16T00:03:15;95146.47;;;23.52;73.08
18201;BME280;9226;47.858;9.594;2023-07-16T00:05:41;95159.81;;;23.47;73.14
18201;BME280;9226;47.858;9.594;2023-07-16T00:08:06;95151.28;;;23.37;74.34
18201;BME280;9226;47.858;9.594;2023-07-16T00:10:35;95149.47;;;23.17;76.07
18201;BME280;9226;47.858;9.594;2023-07-16T00:13:02;95159.44;;;23.10;75.22
18201;BME280;9226;47.858;9.594;2023-07-16T00:15:28;95169.00;;;22.86;77.69
18201;BME280;9226;47.858;9.594;2023-07-16T00:17:54;95172.97;;;22.97;76.85
18201;BME280;9226;47.858;9.594;2023-07-16T00:20:20;95183.19;;;22.94;76.95
18201;BME280;9226;47.858;9.594;2023-07-16T00:22:45;95181.50;;;22.93;77.95
18201;BME280;9226;47.858;9.594;2023-07-16T00:25:11;95179.00;;;22.99;77.79
18201;BME280;9226;47.858;9.594;2023-07-16T00:27:36;95175.69;;;22.97;78.18
18201;BME280;9226;47.858;9.594;2023-07-16T00:30:02;95178.38;;;23.03;78.15
18201;BME280;9226;47.858;9.594;2023-07-16T00:32:28;95167.78;;;22.95;78.72
18201;BME280;9226;47.858;9.594;2023-07-16T00:34:54;95171.72;;;22.92;78.35
18201;BME280;9226;47.858;9.594;2023-07-16T00:37:19;95171.91;;;22.98;77.64
18201;BME280;9226;47.858;9.594;2023-07-16T00:39:44;95162.16;;;22.97;79.07
18201;BME280;9226;47.858;9.594;2023-07-16T00:42:10;95154.84;;;23.04;78.38
18201;BME280;9226;47.858;9.594;2023-07-16T00:44:35;95173.56;;;23.05;78.23
18201;BME280;9226;47.858;9.594;2023-07-16T00:47:01;95176.53;;;23.10;78.09
18201;BME280;9226;47.858;9.594;2023-07-16T00:49:27;95188.38;;;23.03;78.40
18201;BME280;9226;47.858;9.594;2023-07-16T00:51:54;95187.31;;;23.04;78.95
18201;BME280;9226;47.858;9.594;2023-07-16T00:54:19;95197.31;;;22.97;78.62
18201;BME280;9226;47.858;9.594;2023-07-16T00:56:45;95199.81;;;22.98;78.68
18201;BME280;9226;47.858;9.594;2023-07-16T00:59:10;95195.25;;;22.92;79.01
18201;BME280;9226;47.858;9.594;2023-07-16T01:01:37;95194.19;;;22.86;79.89
18201;BME280;9226;47.858;9.594;2023-07-16T01:04:04;95205.22;;;22.78;80.92
18201;BME280;9226;47.858;9.594;2023-07-16T01:06:38;95203.75;;;22.75;82.05
18201;BME280;9226;47.858;9.594;2023-07-16T01:09:17;95203.31;;;22.79;82.38
18201;BME280;9226;47.858;9.594;2023-07-16T01:11:43;95191.47;;;22.80;80.78
18201;BME280;9226;47.858;9.594;2023-07-16T01:14:10;95194.34;;;22.51;85.07
18201;BME280;9226;47.858;9.594;2023-07-16T01:16:35;95196.69;;;22.68;81.70
18201;BME280;9226;47.858;9.594;2023-07-16T01:19:01;95193.13;;;22.54;83.59
18201;BME280;9226;47.858;9.594;2023-07-16T01:21:32;95206.03;;;22.58;82.09
18201;BME280;9226;47.858;9.594;2023-07-16T01:30:08;95222.66;;;22.69;84.91
18201;BME280;9226;47.858;9.594;2023-07-16T01:32:36;95217.25;;;22.75;83.31
18201;BME280;9226;47.858;9.594;2023-07-16T01:35:02;95217.91;;;22.77;82.98
18201;BME280;9226;47.858;9.594;2023-07-16T01:37:28;95222.06;;;22.80;82.83
18201;BME280;9226;47.858;9.594;2023-07-16T01:39:53;95232.91;;;22.87;81.90
18201;BME280;9226;47.858;9.594;2023-07-16T01:42:19;95228.94;;;22.89;82.07
18201;BME280;9226;47.858;9.594;2023-07-16T01:44:44;95223.13;;;22.92;81.89
18201;BME280;9226;47.858;9.594;2023-07-16T01:49:48;95217.28;;;22.82;79.27
18201;BME280;9226;47.858;9.594;2023-07-16T01:52:13;95206.47;;;22.82;78.93
18201;BME280;9226;47.858;9.594;2023-07-16T01:54:38;95199.59;;;22.73;79.61
18201;BME280;9226;47.858;9.594;2023-07-16T01:57:04;95207.47;;;22.61;80.25
18201;BME280;9226;47.858;9.594;2023-07-16T01:59:30;95201.03;;;22.69;78.28
18201;BME280;9226;47.858;9.594;2023-07-16T02:01:55;95213.94;;;22.60;78.33
18201;BME280;9226;47.858;9.594;2023-07-16T02:04:21;95223.88;;;22.53;79.22
18201;BME280;9226;47.858;9.594;2023-07-16T02:06:46;95224.63;;;22.27;82.29
18201;BME280;9226;47.858;9.594;2023-07-16T02:09:13;95236.63;;;22.11;83.98
18201;BME280;9226;47.858;9.594;2023-07-16T02:11:38;95248.59;;;21.95;83.85
18201;BME280;9226;47.858;9.594;2023-07-16T02:14:04;95256.28;;;21.91;83.70
18201;BME280;9226;47.858;9.594;2023-07-16T02:16:29;95259.88;;;21.63;83.48
18201;BME280;9226;47.858;9.594;2023-07-16T02:18:54;95253.00;;;21.61;82.83
18201;BME280;9226;47.858;9.594;2023-07-16T02:21:20;95260.69;;;21.64;80.75
18201;BME280;9226;47.858;9.594;2023-07-16T02:23:45;95265.41;;;21.55;82.72
18201;BME280;9226;47.858;9.594;2023-07-16T02:26:10;95265.97;;;21.50;83.18
18201;BME280;9226;47.858;9.594;2023-07-16T02:28:36;95258.94;;;21.49;83.59
18201;BME280;9226;47.858;9.594;2023-07-16T02:31:02;95260.41;;;21.52;83.09
18201;BME280;9226;47.858;9.594;2023-07-16T02:33:28;95268.22;;;21.47;82.70
18201;BME280;9226;47.858;9.594;2023-07-16T02:35:53;95268.63;;;21.44;81.37
18201;BME280;9226;47.858;9.594;2023-07-16T02:38:18;95265.16;;;21.28;82.03
18201;BME280;9226;47.858;9.594;2023-07-16T02:40:45;95276.00;;;21.07;84.95
18201;BME280;9226;47.858;9.594;2023-07-16T02:43:11;95268.78;;;21.14;82.98
18201;BME280;9226;47.858;9.594;2023-07-16T02:45:36;95279.34;;;20.87;83.24
18201;BME280;9226;47.858;9.594;2023-07-16T02:48:02;95277.78;;;20.56;83.61
18201;BME280;9226;47.858;9.594;2023-07-16T02:50:28;95286.31;;;20.60;82.23
18201;BME280;9226;47.858;9.594;2023-07-16T02:52:53;95297.06;;;20.38;83.11
18201;BME280;9226;47.858;9.594;2023-07-16T02:55:19;95291.81;;;20.15;83.47
18201;BME280;9226;47.858;9.594;2023-07-16T02:57:44;95300.16;;;20.20;82.93
18201;BME280;9226;47.858;9.594;2023-07-16T03:00:10;95304.44;;;20.00;84.01
18201;BME280;9226;47.858;9.594;2023-07-16T03:02:35;95305.66;;;19.97;83.58
18201;BME280;9226;47.858;9.594;2023-07-16T03:05:01;95298.41;;;19.98;83.64
18201;BME280;9226;47.858;9.594;2023-07-16T03:07:26;95284.88;;;19.91;83.86
18201;BME280;9226;47.858;9.594;2023-07-16T03:09:52;95310.09;;;19.75;82.87
18201;BME280;9226;47.858;9.594;2023-07-16T03:12:17;95329.13;;;19.74;82.56
18201;BME280;9226;47.858;9.594;2023-07-16T03:14:43;95339.75;;;19.52;83.32
18201;BME280;9226;47.858;9.594;2023-07-16T03:17:08;95327.56;;;19.41;84.23
18201;BME280;9226;47.858;9.594;2023-07-16T03:19:34;95324.78;;;19.34;83.83
18201;BME280;9226;47.858;9.594;2023-07-16T03:21:59;95323.78;;;19.36;82.97
18201;BME280;9226;47.858;9.594;2023-07-16T03:24:25;95302.13;;;19.29;82.87
18201;BME280;9226;47.858;9.594;2023-07-16T03:26:50;95315.19;;;19.17;82.73
18201;BME280;9226;47.858;9.594;2023-07-16T03:29:15;95325.84;;;19.10;83.35
18201;BME280;9226;47.858;9.594;2023-07-16T03:31:41;95336.81;;;19.01;84.55
18201;BME280;9226;47.858;9.594;2023-07-16T03:34:06;95328.09;;;18.98;84.31
18201;BME280;9226;47.858;9.594;2023-07-16T03:36:31;95324.06;;;19.03;83.28
18201;BME280;9226;47.858;9.594;2023-07-16T03:38:57;95327.38;;;19.05;83.50
18201;BME280;9226;47.858;9.594;2023-07-16T03:41:22;95331.78;;;18.97;83.44
18201;BME280;9226;47.858;9.594;2023-07-16T03:43:48;95334.88;;;18.94;84.57
18201;BME280;9226;47.858;9.594;2023-07-16T03:46:13;95326.13;;;18.92;83.62
18201;BME280;9226;47.858;9.594;2023-07-16T03:48:38;95332.81;;;18.96;83.47
18201;BME280;9226;47.858;9.594;2023-07-16T03:51:04;95336.22;;;18.90;83.69
18201;BME280;9226;47.858;9.594;2023-07-16T03:53:29;95328.00;;;18.92;83.38
18201;BME280;9226;47.858;9.594;2023-07-16T03:55:55;95322.72;;;18.98;82.47
18201;BME280;9226;47.858;9.594;2023-07-16T03:58:20;95332.94;;;19.03;82.31
18201;BME280;9226;47.858;9.594;2023-07-16T04:00:46;95335.03;;;18.93;82.52
18201;BME280;9226;47.858;9.594;2023-07-16T04:03:11;95340.28;;;18.86;83.38
18201;BME280;9226;47.858;9.594;2023-07-16T04:05:36;95342.78;;;18.88;83.12
18201;BME280;9226;47.858;9.594;2023-07-16T04:08:02;95346.69;;;18.85;82.94
18201;BME280;9226;47.858;9.594;2023-07-16T04:10:27;95361.28;;;18.83;82.77
18201;BME280;9226;47.858;9.594;2023-07-16T04:12:53;95355.78;;;18.76;82.64
18201;BME280;9226;47.858;9.594;2023-07-16T04:15:18;95364.16;;;18.81;83.60
18201;BME280;9226;47.858;9.594;2023-07-16T04:17:44;95358.09;;;18.87;82.91
18201;BME280;9226;47.858;9.594;2023-07-16T04:20:09;95353.53;;;18.88;82.73
18201;BME280;9226;47.858;9.594;2023-07-16T04:22:35;95356.44;;;18.78;83.32
18201;BME280;9226;47.858;9.594;2023-07-16T04:25:01;95355.91;;;18.83;83.30
18201;BME280;9226;47.858;9.594;2023-07-16T04:27:26;95363.31;;;18.80;83.00
18201;BME280;9226;47.858;9.594;2023-07-16T04:29:52;95357.75;;;18.90;82.21
18201;BME280;9226;47.858;9.594;2023-07-16T04:32:18;95361.19;;;18.99;81.85
18201;BME280;9226;47.858;9.594;2023-07-16T04:34:43;95368.78;;;18.95;81.40
18201;BME280;9226;47.858;9.594;2023-07-16T04:37:09;95386.25;;;19.00;80.89
18201;BME280;9226;47.858;9.594;2023-07-16T04:39:34;95397.72;;;18.93;81.25
18201;BME280;9226;47.858;9.594;2023-07-16T04:42:00;95398.00;;;18.98;81.13
18201;BME280;9226;47.858;9.594;2023-07-16T04:44:25;95395.59;;;19.04;79.75
18201;BME280;9226;47.858;9.594;2023-07-16T04:46:50;95402.59;;;18.90;80.92
18201;BME280;9226;47.858;9.594;2023-07-16T04:49:16;95393.22;;;18.86;81.11
18201;BME280;9226;47.858;9.594;2023-07-16T04:51:41;95402.59;;;18.81;81.53
18201;BME280;9226;47.858;9.594;2023-07-16T04:54:07;95397.41;;;18.80;81.99
18201;BME280;9226;47.858;9.594;2023-07-16T04:56:32;95400.09;;;18.88;80.91
18201;BME280;9226;47.858;9.594;2023-07-16T04:58:57;95396.69;;;18.94;80.74
18201;BME280;9226;47.858;9.594;2023-07-16T05:01:23;95412.53;;;18.81;82.10
18201;BME280;9226;47.858;9.594;2023-07-16T05:03:48;95409.19;;;18.79;81.94
18201;BME280;9226;47.858;9.594;2023-07-16T05:06:14;95398.75;;;18.84;81.11
18201;BME280;9226;47.858;9.594;2023-07-16T05:08:39;95396.56;;;18.79;81.75
18201;BME280;9226;47.858;9.594;2023-07-16T05:11:04;95408.88;;;18.74;81.28
18201;BME280;9226;47.858;9.594;2023-07-16T05:13:30;95412.22;;;18.84;80.43
18201;BME280;9226;47.858;9.594;2023-07-16T05:15:55;95402.19;;;18.70;81.01
18201;BME280;9226;47.858;9.594;2023-07-16T05:18:21;95409.88;;;18.73;79.78
18201;BME280;9226;47.858;9.594;2023-07-16T05:20:47;95425.00;;;18.74;79.60
18201;BME280;9226;47.858;9.594;2023-07-16T05:23:13;95420.34;;;18.59;79.91
18201;BME280;9226;47.858;9.594;2023-07-16T05:25:39;95424.38;;;18.63;80.52
18201;BME280;9226;47.858;9.594;2023-07-16T05:28:10;95429.63;;;18.57;81.59
18201;BME280;9226;47.858;9.594;2023-07-16T05:30:35;95439.06;;;18.44;81.54
18201;BME280;9226;47.858;9.594;2023-07-16T05:33:00;95440.75;;;18.46;81.51
18201;BME280;9226;47.858;9.594;2023-07-16T05:35:26;95445.59;;;18.42;81.75
18201;BME280;9226;47.858;9.594;2023-07-16T05:37:51;95441.44;;;18.39;82.25
18201;BME280;9226;47.858;9.594;2023-07-16T05:40:16;95436.25;;;18.38;81.58
18201;BME280;9226;47.858;9.594;2023-07-16T05:42:42;95434.25;;;18.32;81.52
18201;BME280;9226;47.858;9.594;2023-07-16T05:45:07;95444.25;;;18.46;81.19
18201;BME280;9226;47.858;9.594;2023-07-16T05:47:33;95432.69;;;18.46;81.70
18201;BME280;9226;47.858;9.594;2023-07-16T05:49:58;95428.00;;;18.39;81.79
18201;BME280;9226;47.858;9.594;2023-07-16T05:52:24;95438.53;;;18.49;80.92
18201;BME280;9226;47.858;9.594;2023-07-16T05:54:49;95437.72;;;18.49;81.02
18201;BME280;9226;47.858;9.594;2023-07-16T05:57:14;95445.88;;;18.63;80.32
18201;BME280;9226;47.858;9.594;2023-07-16T05:59:40;95442.56;;;18.53;80.96
18201;BME280;9226;47.858;9.594;2023-07-16T06:02:05;95440.94;;;18.75;82.71
18201;BME280;9226;47.858;9.594;2023-07-16T06:04:31;95440.81;;;19.31;80.51
18201;BME280;9226;47.858;9.594;2023-07-16T06:06:56;95447.13;;;19.39;78.76
18201;BME280;9226;47.858;9.594;2023-07-16T06:09:22;95452.06;;;19.58;78.41
18201;BME280;9226;47.858;9.594;2023-07-16T06:11:47;95452.41;;;19.55;78.42
18201;BME280;9226;47.858;9.594;2023-07-16T06:14:13;95452.41;;;19.55;78.49
18201;BME280;9226;47.858;9.594;2023-07-16T06:16:38;95448.09;;;19.46;79.16
18201;BME280;9226;47.858;9.594;2023-07-16T06:19:04;95448.31;;;19.59;78.54
18201;BME280;9226;47.858;9.594;2023-07-16T06:21:29;95445.94;;;19.64;77.83
18201;BME280;9226;47.858;9.594;2023-07-16T06:23:54;95439.25;;;19.60;77.33
18201;BME280;9226;47.858;9.594;2023-07-16T06:26:20;95442.59;;;19.62;77.46
18201;BME280;9226;47.858;9.594;2023-07-16T06:28:45;95426.56;;;19.69;77.50
18201;BME280;9226;47.858;9.594;2023-07-16T06:31:15;95419.03;;;19.64;78.24
18201;BME280;9226;47.858;9.594;2023-07-16T06:33:40;95430.09;;;19.46;79.55
18201;BME280;9226;47.858;9.594;2023-07-16T06:36:05;95432.84;;;19.61;77.64
18201;BME280;9226;47.858;9.594;2023-07-16T06:38:31;95420.69;;;19.65;77.71
18201;BME280;9226;47.858;9.594;2023-07-16T06:40:56;95425.88;;;19.52;77.94
18201;BME280;9226;47.858;9.594;2023-07-16T06:43:22;95429.69;;;19.58;77.73
18201;BME280;9226;47.858;9.594;2023-07-16T06:45:49;95425.72;;;19.92;80.52
18201;BME280;9226;47.858;9.594;2023-07-16T06:48:15;95427.31;;;20.46;79.85
18201;BME280;9226;47.858;9.594;2023-07-16T06:50:40;95433.78;;;20.96;81.98
18201;BME280;9226;47.858;9.594;2023-07-16T06:53:06;95423.66;;;21.56;77.22
18201;BME280;9226;47.858;9.594;2023-07-16T06:55:31;95424.50;;;22.35;76.81
18201;BME280;9226;47.858;9.594;2023-07-16T06:57:56;95427.63;;;22.80;70.02
18201;BME280;9226;47.858;9.594;2023-07-16T07:00:22;95428.19;;;23.10;71.75
18201;BME280;9226;47.858;9.594;2023-07-16T07:02:47;95415.41;;;23.73;69.92
18201;BME280;9226;47.858;9.594;2023-07-16T07:05:13;95412.84;;;24.45;66.47
18201;BME280;9226;47.858;9.594;2023-07-16T07:07:38;95401.13;;;24.51;62.45
18201;BME280;9226;47.858;9.594;2023-07-16T07:10:04;95402.47;;;25.00;62.64
18201;BME280;9226;47.858;9.594;2023-07-16T07:12:29;95395.03;;;25.59;60.81
18201;BME280;9226;47.858;9.594;2023-07-16T07:14:55;95384.91;;;26.24;58.54
18201;BME280;9226;47.858;9.594;2023-07-16T07:17:20;95390.09;;;26.87;55.06
18201;BME280;9226;47.858;9.594;2023-07-16T07:19:45;95386.22;;;26.95;52.16
18201;BME280;9226;47.858;9.594;2023-07-16T07:22:12;95396.38;;;27.18;49.66
18201;BME280;9226;47.858;9.594;2023-07-16T07:24:37;95392.09;;;27.71;49.31
18201;BME280;9226;47.858;9.594;2023-07-16T07:27:03;95388.31;;;27.84;49.14
18201;BME280;9226;47.858;9.594;2023-07-16T07:29:31;95398.56;;;28.24;50.02
18201;BME280;9226;47.858;9.594;2023-07-16T07:31:57;95404.88;;;28.60;47.12
18201;BME280;9226;47.858;9.594;2023-07-16T07:34:22;95407.38;;;28.74;45.59
18201;BME280;9226;47.858;9.594;2023-07-16T07:36:47;95396.16;;;28.87;46.66
18201;BME280;9226;47.858;9.594;2023-07-16T07:39:13;95412.00;;;29.14;45.05
18201;BME280;9226;47.858;9.594;2023-07-16T07:41:39;95405.44;;;29.38;44.69
18201;BME280;9226;47.858;9.594;2023-07-16T07:44:04;95402.16;;;29.25;44.08
18201;BME280;9226;47.858;9.594;2023-07-16T07:46:30;95403.75;;;29.37;43.45
18201;BME280;9226;47.858;9.594;2023-07-16T07:48:55;95400.81;;;29.85;41.12
18201;BME280;9226;47.858;9.594;2023-07-16T07:51:21;95395.59;;;29.83;39.76
18201;BME280;9226;47.858;9.594;2023-07-16T07:53:46;95400.16;;;30.11;41.72
18201;BME280;9226;47.858;9.594;2023-07-16T07:56:11;95395.91;;;30.55;40.24
18201;BME280;9226;47.858;9.594;2023-07-16T07:58:37;95392.72;;;30.63;40.06
18201;BME280;9226;47.858;9.594;2023-07-16T08:01:06;95376.97;;;30.92;39.75
18201;BME280;9226;47.858;9.594;2023-07-16T08:03:32;95379.94;;;31.35;37.64
18201;BME280;9226;47.858;9.594;2023-07-16T08:05:57;95379.13;;;31.56;37.98
18201;BME280;9226;47.858;9.594;2023-07-16T08:08:23;95379.63;;;31.53;37.87
18201;BME280;9226;47.858;9.594;2023-07-16T08:10:48;95380.78;;;31.63;38.13
18201;BME280;9226;47.858;9.594;2023-07-16T08:13:14;95386.47;;;31.83;37.62
18201;BME280;9226;47.858;9.594;2023-07-16T08:15:39;95384.63;;;31.62;37.28
18201;BME280;9226;47.858;9.594;2023-07-16T08:18:05;95386.03;;;31.64;37.72
18201;BME280;9226;47.858;9.594;2023-07-16T08:20:30;95374.28;;;31.69;37.90
18201;BME280;9226;47.858;9.594;2023-07-16T08:22:56;95375.06;;;31.42;34.96
18201;BME280;9226;47.858;9.594;2023-07-16T08:25:21;95372.06;;;31.44;37.47
18201;BME280;9226;47.858;9.594;2023-07-16T08:27:47;95385.94;;;31.32;37.92
18201;BME280;9226;47.858;9.594;2023-07-16T08:30:13;95376.94;;;31.59;37.67
18201;BME280;9226;47.858;9.594;2023-07-16T08:32:39;95372.38;;;31.69;36.48
18201;BME280;9226;47.858;9.594;2023-07-16T08:35:04;95381.00;;;32.16;36.36
18201;BME280;9226;47.858;9.594;2023-07-16T08:37:30;95380.91;;;32.38;34.06
18201;BME280;9226;47.858;9.594;2023-07-16T08:39:55;95373.38;;;32.23;33.40
18201;BME280;9226;47.858;9.594;2023-07-16T08:42:20;95372.66;;;32.05;34.03
18201;BME280;9226;47.858;9.594;2023-07-16T08:44:48;95375.25;;;32.17;34.87
18201;BME280;9226;47.858;9.594;2023-07-16T08:47:15;95378.31;;;31.88;35.34
18201;BME280;9226;47.858;9.594;2023-07-16T08:49:41;95372.06;;;31.16;35.66
18201;BME280;9226;47.858;9.594;2023-07-16T08:52:07;95364.22;;;31.52;35.81
18201;BME280;9226;47.858;9.594;2023-07-16T08:54:33;95365.56;;;31.50;36.08
18201;BME280;9226;47.858;9.594;2023-07-16T08:56:59;95365.75;;;31.98;34.90
18201;BME280;9226;47.858;9.594;2023-07-16T08:59:26;95369.78;;;32.17;34.78
18201;BME280;9226;47.858;9.594;2023-07-16T09:01:52;95371.00;;;32.37;35.12
18201;BME280;9226;47.858;9.594;2023-07-16T09:04:17;95369.50;;;32.56;35.19
18201;BME280;9226;47.858;9.594;2023-07-16T09:06:43;95369.69;;;32.44;35.38
18201;BME280;9226;47.858;9.594;2023-07-16T09:09:12;95376.09;;;32.18;35.11
18201;BME280;9226;47.858;9.594;2023-07-16T09:11:47;95372.22;;;31.86;35.48
18201;BME280;9226;47.858;9.594;2023-07-16T09:14:18;95385.19;;;31.64;35.44
18201;BME280;9226;47.858;9.594;2023-07-16T09:16:51;95388.97;;;31.58;35.24
18201;BME280;9226;47.858;9.594;2023-07-16T09:19:17;95380.50;;;31.37;35.23
18201;BME280;9226;47.858;9.594;2023-07-16T09:21:51;95372.25;;;31.10;35.41
18201;BME280;9226;47.858;9.594;2023-07-16T09:24:17;95371.97;;;31.55;35.37
18201;BME280;9226;47.858;9.594;2023-07-16T09:26:54;95391.53;;;31.42;36.96
18201;BME280;9226;47.858;9.594;2023-07-16T09:29:20;95392.41;;;31.70;36.25
18201;BME280;9226;47.858;9.594;2023-07-16T09:32:02;95384.72;;;31.72;36.41
18201;BME280;9226;47.858;9.594;2023-07-16T09:34:28;95375.41;;;31.73;36.43
18201;BME280;9226;47.858;9.594;2023-07-16T09:36:54;95375.97;;;31.75;36.86
18201;BME280;9226;47.858;9.594;2023-07-16T09:39:19;95380.16;;;31.83;36.96
18201;BME280;9226;47.858;9.594;2023-07-16T09:41:49;95382.47;;;31.42;36.04
18201;BME280;9226;47.858;9.594;2023-07-16T09:44:15;95379.22;;;31.17;35.49
18201;BME280;9226;47.858;9.594;2023-07-16T09:46:42;95378.41;;;30.78;35.72
18201;BME280;9226;47.858;9.594;2023-07-16T09:49:08;95378.44;;;30.39;36.24
18201;BME280;9226;47.858;9.594;2023-07-16T09:51:36;95370.44;;;29.69;37.53
18201;BME280;9226;47.858;9.594;2023-07-16T09:54:02;95368.28;;;29.54;38.21
18201;BME280;9226;47.858;9.594;2023-07-16T09:56:48;95369.41;;;29.41;38.93
18201;BME280;9226;47.858;9.594;2023-07-16T09:59:16;95366.38;;;29.26;39.33
18201;BME280;9226;47.858;9.594;2023-07-16T10:01:43;95375.22;;;29.04;41.02
18201;BME280;9226;47.858;9.594;2023-07-16T10:04:15;95377.78;;;28.82;41.36
18201;BME280;9226;47.858;9.594;2023-07-16T10:06:54;95379.59;;;28.77;43.24
18201;BME280;9226;47.858;9.594;2023-07-16T10:09:37;95380.19;;;29.08;42.22
18201;BME280;9226;47.858;9.594;2023-07-16T10:12:19;95384.38;;;29.39;41.25
18201;BME280;9226;47.858;9.594;2023-07-16T10:14:52;95370.88;;;29.32;42.05
18201;BME280;9226;47.858;9.594;2023-07-16T10:17:20;95369.19;;;28.91;41.19
18201;BME280;9226;47.858;9.594;2023-07-16T10:20:12;95366.59;;;28.96;42.63
18201;BME280;9226;47.858;9.594;2023-07-16T10:22:42;95372.72;;;29.44;41.60
18201;BME280;9226;47.858;9.594;2023-07-16T10:25:28;95374.41;;;29.78;42.36
18201;BME280;9226;47.858;9.594;2023-07-16T10:27:55;95369.31;;;29.99;41.39
18201;BME280;9226;47.858;9.594;2023-07-16T10:30:21;95370.31;;;29.93;41.04
18201;BME280;9226;47.858;9.594;2023-07-16T10:32:46;95375.94;;;29.86;41.08
18201;BME280;9226;47.858;9.594;2023-07-16T10:35:12;95374.81;;;29.13;42.46
18201;BME280;9226;47.858;9.594;2023-07-16T10:37:38;95359.88;;;28.75;41.34
18201;BME280;9226;47.858;9.594;2023-07-16T10:40:05;95373.53;;;28.51;42.21
18201;BME280;9226;47.858;9.594;2023-07-16T10:42:31;95370.94;;;29.09;41.46
18201;BME280;9226;47.858;9.594;2023-07-16T10:45:02;95371.38;;;29.29;41.97
18201;BME280;9226;47.858;9.594;2023-07-16T10:47:36;95374.63;;;29.43;41.23
18201;BME280;9226;47.858;9.594;2023-07-16T10:50:06;95378.75;;;29.17;42.29
18201;BME280;9226;47.858;9.594;2023-07-16T10:52:33;95384.03;;;29.07;42.69
18201;BME280;9226;47.858;9.594;2023-07-16T10:54:58;95385.31;;;29.04;42.05
18201;BME280;9226;47.858;9.594;2023-07-16T10:57:25;95381.88;;;28.97;41.30
18201;BME280;9226;47.858;9.594;2023-07-16T10:59:51;95384.44;;;29.27;41.12
18201;BME280;9226;47.858;9.594;2023-07-16T11:02:17;95386.50;;;29.20;41.82
18201;BME280;9226;47.858;9.594;2023-07-16T11:04:46;95388.63;;;29.18;41.95
18201;BME280;9226;47.858;9.594;2023-07-16T11:07:13;95390.16;;;29.14;42.11
18201;BME280;9226;47.858;9.594;2023-07-16T11:09:46;95392.09;;;29.42;41.95
18201;BME280;9226;47.858;9.594;2023-07-16T11:12:13;95395.94;;;29.17;41.19
18201;BME280;9226;47.858;9.594;2023-07-16T11:14:42;95389.50;;;29.07;42.50
18201;BME280;9226;47.858;9.594;2023-07-16T11:17:08;95397.81;;;29.40;42.31
18201;BME280;9226;47.858;9.594;2023-07-16T11:19:35;95393.44;;;29.56;41.19
18201;BME280;9226;47.858;9.594;2023-07-16T11:22:02;95388.00;;;29.73;41.70
18201;BME280;9226;47.858;9.594;2023-07-16T11:24:27;95387.31;;;29.66;41.41
18201;BME280;9226;47.858;9.594;2023-07-16T11:26:54;95378.78;;;29.63;41.42
18201;BME280;9226;47.858;9.594;2023-07-16T11:29:23;95377.97;;;29.33;42.66
18201;BME280;9226;47.858;9.594;2023-07-16T11:31:52;95381.81;;;29.49;41.14
18201;BME280;9226;47.858;9.594;2023-07-16T11:34:21;95377.88;;;29.57;40.89
18201;BME280;9226;47.858;9.594;2023-07-16T11:36:48;95386.47;;;29.49;41.45
18201;BME280;9226;47.858;9.594;2023-07-16T11:39:13;95371.25;;;29.53;41.44
18201;BME280;9226;47.858;9.594;2023-07-16T11:41:39;95365.28;;;29.56;41.26
18201;BME280;9226;47.858;9.594;2023-07-16T11:44:07;95357.50;;;29.48;40.49
18201;BME280;9226;47.858;9.594;2023-07-16T11:46:34;95357.75;;;29.46;40.28
18201;BME280;9226;47.858;9.594;2023-07-16T11:49:00;95359.34;;;29.59;40.57
18201;BME280;9226;47.858;9.594;2023-07-16T11:51:25;95364.03;;;29.47;40.53
18201;BME280;9226;47.858;9.594;2023-07-16T11:53:51;95358.16;;;29.55;40.91
18201;BME280;9226;47.858;9.594;2023-07-16T11:56:16;95356.50;;;29.54;39.67
18201;BME280;9226;47.858;9.594;2023-07-16T11:58:42;95350.97;;;29.20;39.95
18201;BME280;9226;47.858;9.594;2023-07-16T12:01:07;95346.03;;;29.34;40.90
18201;BME280;9226;47.858;9.594;2023-07-16T12:03:33;95354.66;;;29.42;40.63
18201;BME280;9226;47.858;9.594;2023-07-16T12:05:59;95355.91;;;29.52;40.20
18201;BME280;9226;47.858;9.594;2023-07-16T12:08:24;95353.34;;;29.45;40.17
18201;BME280;9226;47.858;9.594;2023-07-16T12:10:49;95355.53;;;29.31;39.99
18201;BME280;9226;47.858;9.594;2023-07-16T12:13:15;95354.53;;;29.20;40.70
18201;BME280;9226;47.858;9.594;2023-07-16T12:15:40;95351.19;;;29.18;41.01
18201;BME280;9226;47.858;9.594;2023-07-16T12:18:06;95358.34;;;29.08;40.48
18201;BME280;9226;47.858;9.594;2023-07-16T12:20:33;95357.69;;;29.00;41.07
18201;BME280;9226;47.858;9.594;2023-07-16T12:22:59;95337.94;;;28.69;41.33
18201;BME280;9226;47.858;9.594;2023-07-16T12:25:24;95340.31;;;28.54;41.38
18201;BME280;9226;47.858;9.594;2023-07-16T12:27:50;95352.06;;;28.66;41.90
18201;BME280;9226;47.858;9.594;2023-07-16T12:30:15;95358.72;;;28.71;42.37
18201;BME280;9226;47.858;9.594;2023-07-16T12:32:41;95351.38;;;28.59;42.90
18201;BME280;9226;47.858;9.594;2023-07-16T12:35:06;95362.38;;;28.52;41.86
18201;BME280;9226;47.858;9.594;2023-07-16T12:37:32;95357.28;;;28.56;41.92
18201;BME280;9226;47.858;9.594;2023-07-16T12:39:57;95363.56;;;28.68;42.99
18201;BME280;9226;47.858;9.594;2023-07-16T12:42:23;95360.97;;;28.50;43.51
18201;BME280;9226;47.858;9.594;2023-07-16T12:44:48;95352.69;;;28.33;43.97
18201;BME280;9226;47.858;9.594;2023-07-16T12:47:15;95355.19;;;28.11;43.17
18201;BME280;9226;47.858;9.594;2023-07-16T12:49:40;95363.91;;;27.89;43.48
18201;BME280;9226;47.858;9.594;2023-07-16T12:52:06;95353.13;;;27.83;43.36
18201;BME280;9226;47.858;9.594;2023-07-16T12:54:32;95342.63;;;27.98;43.75
18201;BME280;9226;47.858;9.594;2023-07-16T12:56:57;95336.06;;;28.23;43.87
18201;BME280;9226;47.858;9.594;2023-07-16T12:59:23;95343.53;;;28.04;43.05
18201;BME280;9226;47.858;9.594;2023-07-16T13:01:49;95342.75;;;28.15;43.70
18201;BME280;9226;47.858;9.594;2023-07-16T13:04:15;95333.63;;;27.97;43.63
18201;BME280;9226;47.858;9.594;2023-07-16T13:06:40;95329.66;;;28.05;43.14
18201;BME280;9226;47.858;9.594;2023-07-16T13:09:07;95338.09;;;28.04;43.31
18201;BME280;9226;47.858;9.594;2023-07-16T13:11:32;95349.00;;;28.04;42.94
18201;BME280;9226;47.858;9.594;2023-07-16T13:13:58;95349.69;;;27.75;43.09